Time;durP1;ratioP1;P1;durP2;ratioP2;P2;SDS_P1;SDS_P2;PMS_P1;PMS_P2;Temp;Humidity;BMP_temperature;BMP_pressure;BME280_temperature;BME280_humidity;BME280_pressure;Samples;Min_cycle;Max_cycle;Signal;HPM_P1;HPM_P2
2022/06/15 00:01:24;;;;;;;4.47;1.85;;;;;;;15.28;49.55;100656.63;1787685;78;21579;-50
2022/06/15 00:03:51;;;;;;;5.25;1.60;;;;;;;15.28;49.59;100653.12;1785583;78;21050;-50
2022/06/15 00:06:25;;;;;;;5.92;1.72;;;;;;;15.25;49.68;100659.56;1772859;78;22375;-50
2022/06/15 00:08:54;;;;;;;4.60;2.10;;;;;;;15.23;49.81;100658.85;1782162;78;21057;-51
2022/06/15 00:11:27;;;;;;;6.92;1.80;;;;;;;15.20;49.82;100652.54;1788759;78;21292;-50
2022/06/15 00:13:54;;;;;;;6.60;2.10;;;;;;;15.17;49.86;100657.63;1784340;78;21038;-50
2022/06/15 00:16:21;;;;;;;8.08;2.00;;;;;;;15.17;49.76;100651.50;1783021;78;21053;-50
2022/06/15 00:18:49;;;;;;;4.95;1.60;;;;;;;15.17;49.67;100652.83;1771923;78;21935;-50
2022/06/15 00:21:17;;;;;;;4.45;1.87;;;;;;;15.16;49.51;100653.80;1770387;78;21532;-50
2022/06/15 00:23:44;;;;;;;5.58;2.08;;;;;;;15.14;49.50;100649.97;1772183;79;21053;-50
2022/06/15 00:26:11;;;;;;;6.90;2.12;;;;;;;15.11;49.54;100646.78;1797674;79;20998;-50
2022/06/15 00:28:37;;;;;;;5.45;1.80;;;;;;;15.07;49.64;100650.71;1782240;78;21044;-49
2022/06/15 00:31:04;;;;;;;6.22;1.90;;;;;;;15.03;49.72;100648.84;1782535;78;21135;-50
2022/06/15 00:33:31;;;;;;;5.30;1.82;;;;;;;15.01;49.93;100652.97;1761722;79;21015;-50
2022/06/15 00:36:01;;;;;;;5.55;1.98;;;;;;;15.00;50.07;100652.61;1771366;79;21140;-50
2022/06/15 00:38:31;;;;;;;4.50;1.90;;;;;;;14.98;50.15;100655.08;1781032;79;21088;-50
2022/06/15 00:40:58;;;;;;;6.25;1.70;;;;;;;14.96;50.21;100651.71;1773460;79;20998;-50
2022/06/15 00:43:32;;;;;;;8.03;2.08;;;;;;;14.94;50.34;100647.05;1775056;79;21141;-50
2022/06/15 00:45:59;;;;;;;6.85;2.15;;;;;;;14.93;50.33;100655.97;1762676;79;20990;-50
2022/06/15 00:48:27;;;;;;;7.40;2.17;;;;;;;14.91;50.45;100651.31;1789550;79;21017;-51
2022/06/15 00:50:55;;;;;;;4.70;2.17;;;;;;;14.87;50.52;100653.41;1760733;79;21148;-50
2022/06/15 00:53:21;;;;;;;7.12;1.98;;;;;;;14.87;50.53;100650.77;1759751;79;21025;-51
2022/06/15 00:55:51;;;;;;;4.90;2.00;;;;;;;14.86;50.49;100645.11;1759337;79;21131;-50
2022/06/15 00:58:17;;;;;;;5.47;2.30;;;;;;;14.83;50.71;100647.58;1770262;79;20995;-50
2022/06/15 01:00:46;;;;;;;5.42;2.17;;;;;;;14.84;50.55;100652.38;1758082;79;21053;-50
2022/06/15 01:03:13;;;;;;;5.45;1.72;;;;;;;14.83;50.56;100650.72;1782785;79;21100;-50
2022/06/15 01:05:59;;;;;;;5.85;2.15;;;;;;;14.81;50.62;100644.71;1761032;79;21002;-52
2022/06/15 01:08:44;;;;;;;6.37;2.00;;;;;;;14.81;50.72;100652.66;1749442;79;21853;-50
2022/06/15 01:11:19;;;;;;;9.45;2.25;;;;;;;14.79;50.91;100654.16;1760888;80;21106;-51
2022/06/15 01:14:15;;;;;;;5.60;2.37;;;;;;;14.79;51.00;100654.63;1777125;80;21101;-51
2022/06/15 01:16:54;;;;;;;8.38;2.70;;;;;;;14.79;51.21;100658.59;1749427;79;21111;-50
2022/06/15 01:19:46;;;;;;;6.15;2.35;;;;;;;14.77;51.55;100663.20;1761317;79;21129;-50
2022/06/15 01:22:46;;;;;;;6.05;2.37;;;;;;;14.73;51.66;100663.16;1789885;79;21098;-50
2022/06/15 01:25:33;;;;;;;6.30;2.50;;;;;;;14.70;51.35;100658.97;1758248;79;20983;-50
2022/06/15 01:28:31;;;;;;;6.90;2.58;;;;;;;14.68;51.51;100660.44;1777675;79;21045;-51
2022/06/15 01:31:25;;;;;;;5.70;1.85;;;;;;;14.69;51.60;100671.86;1747511;79;21406;-50
2022/06/15 01:34:44;;;;;;;4.97;2.15;;;;;;;14.67;51.62;100668.52;1774706;79;21044;-50
2022/06/15 01:37:31;;;;;;;5.72;1.92;;;;;;;14.59;51.83;100671.90;1760661;80;21731;-50
2022/06/15 01:40:21;;;;;;;5.83;2.50;;;;;;;14.53;52.34;100673.75;1762568;79;21097;-50
2022/06/15 01:42:59;;;;;;;5.70;2.20;;;;;;;14.48;52.24;100678.63;1778794;79;21058;-50
2022/06/15 01:45:27;;;;;;;5.87;2.37;;;;;;;14.44;52.40;100673.25;1770561;79;21477;-50
2022/06/15 01:47:57;;;;;;;7.08;2.50;;;;;;;14.38;52.55;100675.16;1775752;79;21076;-50
2022/06/15 01:50:31;;;;;;;5.87;1.90;;;;;;;14.36;52.71;100678.44;1774168;79;21846;-50
2022/06/15 01:53:02;;;;;;;5.20;2.45;;;;;;;14.34;52.86;100685.20;1772912;79;21037;-51
2022/06/15 01:55:36;;;;;;;5.85;2.45;;;;;;;14.35;52.93;100680.73;1770304;79;21073;-50
2022/06/15 01:58:07;;;;;;;7.03;2.40;;;;;;;14.34;52.97;100686.98;1771277;79;21054;-51
2022/06/15 02:00:35;;;;;;;7.55;2.00;;;;;;;14.29;53.14;100682.96;1773162;79;21057;-50
2022/06/15 02:03:21;;;;;;;6.78;2.50;;;;;;;14.28;53.24;100688.39;1770837;79;21244;-51
2022/06/15 02:06:09;;;;;;;6.28;2.12;;;;;;;14.25;53.36;100685.52;1763049;79;20994;-50
2022/06/15 02:09:02;;;;;;;5.28;2.10;;;;;;;14.21;53.77;100690.76;1756703;80;21094;-50
2022/06/15 02:11:34;;;;;;;5.30;2.12;;;;;;;14.18;53.95;100687.06;1773731;79;21074;-49
2022/06/15 02:14:16;;;;;;;5.17;2.83;;;;;;;14.16;54.18;100690.34;1776778;79;21547;-49
2022/06/15 02:16:50;;;;;;;6.60;2.40;;;;;;;14.15;54.26;100692.62;1769920;79;21289;-49
2022/06/15 02:19:23;;;;;;;5.17;2.17;;;;;;;14.13;54.36;100696.73;1757271;79;21547;-49
2022/06/15 02:21:50;;;;;;;6.45;2.20;;;;;;;14.10;54.44;100698.83;1770776;79;21544;-49
2022/06/15 02:24:19;;;;;;;6.83;2.52;;;;;;;14.10;54.54;100700.14;1780086;79;21092;-49
2022/06/15 02:26:46;;;;;;;7.22;2.50;;;;;;;14.09;54.84;100703.78;1772747;79;21021;-49
2022/06/15 02:29:17;;;;;;;5.28;2.25;;;;;;;14.09;55.15;100699.32;1707291;82;21756;-49
2022/06/15 02:31:45;;;;;;;5.00;2.15;;;;;;;14.10;55.40;100700.14;1707481;82;21063;-49
2022/06/15 02:34:12;;;;;;;5.65;2.20;;;;;;;14.12;55.62;100704.80;1710440;82;21038;-49
2022/06/15 02:36:40;;;;;;;5.47;2.12;;;;;;;14.14;55.65;100708.17;1717276;81;21027;-48
2022/06/15 02:39:07;;;;;;;5.90;2.40;;;;;;;14.15;55.64;100705.03;1729852;81;21124;-49
2022/06/15 02:41:34;;;;;;;4.97;2.17;;;;;;;14.16;55.52;100706.22;1719515;81;21127;-49
2022/06/15 02:44:04;;;;;;;6.15;2.20;;;;;;;14.16;55.43;100709.36;1722126;81;21125;-49
2022/06/15 02:46:34;;;;;;;4.65;1.85;;;;;;;14.18;55.33;100707.41;1692264;83;21014;-49
2022/06/15 02:49:01;;;;;;;5.22;2.05;;;;;;;14.17;55.32;100708.37;1695216;83;21007;-49
2022/06/15 02:51:46;;;;;;;5.80;1.90;;;;;;;14.13;55.43;100703.34;1688402;83;21137;-49
2022/06/15 02:54:23;;;;;;;6.80;2.02;;;;;;;14.13;55.62;100713.11;1709984;82;21073;-50
2022/06/15 02:56:51;;;;;;;5.72;2.30;;;;;;;14.10;55.70;100713.38;1681594;81;21069;-49
2022/06/15 02:59:17;;;;;;;6.37;2.05;;;;;;;14.08;55.79;100714.01;1695184;82;21135;-50
2022/06/15 03:01:45;;;;;;;6.53;2.15;;;;;;;14.06;55.71;100713.31;1717207;81;21112;-50
2022/06/15 03:04:13;;;;;;;6.47;1.90;;;;;;;14.03;55.90;100714.41;1711925;83;21263;-50
2022/06/15 03:06:41;;;;;;;6.95;2.35;;;;;;;14.02;56.08;100717.19;1716922;81;21183;-50
2022/06/15 03:09:09;;;;;;;4.45;2.00;;;;;;;14.02;56.43;100714.55;1726945;81;21513;-50
2022/06/15 03:11:40;;;;;;;5.00;2.10;;;;;;;14.04;56.44;100717.42;1718970;81;21042;-50
2022/06/15 03:14:09;;;;;;;6.55;2.05;;;;;;;14.05;56.52;100712.45;1690638;83;21525;-50
2022/06/15 03:16:38;;;;;;;5.28;1.95;;;;;;;14.08;56.50;100712.19;1711704;82;21654;-50
2022/06/15 03:19:07;;;;;;;5.35;1.85;;;;;;;14.11;56.75;100721.18;1706722;82;21096;-49
2022/06/15 03:21:35;;;;;;;4.62;1.82;;;;;;;14.14;56.76;100722.73;1725365;82;21544;-50
2022/06/15 03:26:25;;;;;;;4.28;1.92;;;;;;;14.22;56.62;100718.91;1788685;79;22483;-51
2022/06/15 03:28:52;;;;;;;6.15;2.47;;;;;;;14.23;56.47;100726.36;1734871;80;21703;-51
2022/06/15 03:31:19;;;;;;;5.78;2.47;;;;;;;14.25;56.57;100727.88;1741930;80;21207;-50
2022/06/15 03:33:46;;;;;;;6.15;2.02;;;;;;;14.29;56.53;100728.45;1720587;83;21117;-51
2022/06/15 03:36:15;;;;;;;7.45;1.98;;;;;;;14.33;56.61;100736.95;1717615;82;21054;-50
2022/06/15 03:38:44;;;;;;;6.53;2.58;;;;;;;14.35;56.27;100725.73;1716534;81;21627;-50
2022/06/15 03:41:13;;;;;;;7.40;2.22;;;;;;;14.37;56.35;100731.72;1711383;81;21062;-53
2022/06/15 03:43:40;;;;;;;6.87;1.98;;;;;;;14.40;56.08;100731.44;1705148;83;21227;-50
2022/06/15 03:46:06;;;;;;;5.50;2.17;;;;;;;14.42;56.21;100741.40;1721356;81;21004;-50
2022/06/15 03:48:35;;;;;;;5.30;1.85;;;;;;;14.44;56.18;100742.09;1711694;81;21105;-51
2022/06/15 03:51:02;;;;;;;5.12;2.10;;;;;;;14.46;56.39;100742.81;1718909;81;21053;-50
2022/06/15 03:53:30;;;;;;;5.20;2.12;;;;;;;14.49;56.25;100747.80;1719333;82;21121;-50
2022/06/15 03:55:57;;;;;;;5.10;1.95;;;;;;;14.52;56.20;100740.91;1711154;82;21344;-50
2022/06/15 03:58:26;;;;;;;4.37;2.08;;;;;;;14.55;55.93;100752.55;1721747;83;21034;-50
2022/06/15 04:00:54;;;;;;;5.28;1.92;;;;;;;14.56;55.93;100747.61;1711462;82;21640;-50
2022/06/15 04:03:21;;;;;;;4.55;1.95;;;;;;;14.58;56.07;100744.33;1703468;83;21007;-51
2022/06/15 04:05:55;;;;;;;6.05;1.70;;;;;;;14.62;56.09;100747.56;1708573;81;21104;-50
2022/06/15 04:08:37;;;;;;;4.30;1.90;;;;;;;14.72;56.05;100752.86;1700656;83;21207;-50
2022/06/15 04:11:58;;;;;;;6.10;2.25;;;;;;;14.75;55.77;100749.94;1706120;81;21058;-50
2022/06/15 04:13:41;;;;;;;6.12;1.95;;;;;;;14.79;55.80;100750.84;1674147;83;21074;-50
2022/06/15 04:16:08;;;;;;;5.50;1.95;;;;;;;14.84;55.76;100747.28;1704588;83;21114;-50
2022/06/15 04:18:36;;;;;;;4.17;1.70;;;;;;;14.90;55.82;100746.36;1712943;82;21058;-50
2022/06/15 04:21:04;;;;;;;7.00;2.05;;;;;;;14.95;55.91;100765.32;1714919;82;21210;-51
2022/06/15 04:23:31;;;;;;;4.22;1.92;;;;;;;14.97;55.69;100747.45;1697706;82;21106;-50
2022/06/15 04:26:00;;;;;;;4.95;2.08;;;;;;;15.00;55.90;100753.80;1696337;83;21071;-50
2022/06/15 04:28:32;;;;;;;5.35;1.72;;;;;;;15.02;55.57;100747.36;1711505;83;21570;-50
2022/06/15 04:31:00;;;;;;;4.92;1.60;;;;;;;15.07;55.75;100754.06;1706366;83;21071;-50
2022/06/15 04:33:29;;;;;;;4.30;1.67;;;;;;;15.14;55.72;100752.51;1710102;83;21141;-49
2022/06/15 04:35:59;;;;;;;4.60;1.77;;;;;;;15.21;55.46;100749.63;1696544;83;21125;-48
2022/06/15 04:38:26;;;;;;;4.72;2.00;;;;;;;15.29;55.27;100751.56;1703029;83;21063;-48
2022/06/15 04:40:56;;;;;;;4.45;1.92;;;;;;;15.32;55.19;100750.78;1701630;83;21565;-50
2022/06/15 04:43:23;;;;;;;5.50;2.00;;;;;;;15.36;55.11;100756.63;1689804;83;21075;-49
2022/06/15 04:45:50;;;;;;;6.20;1.60;;;;;;;15.37;55.06;100759.13;1691420;83;21145;-49
2022/06/15 04:48:18;;;;;;;5.28;2.15;;;;;;;15.40;55.06;100760.17;1710174;83;21075;-50
2022/06/15 04:50:45;;;;;;;4.40;1.75;;;;;;;15.43;55.11;100760.36;1703729;83;21102;-50
2022/06/15 04:53:12;;;;;;;6.70;2.25;;;;;;;15.46;55.23;100750.79;1707077;83;21059;-49
2022/06/15 04:55:39;;;;;;;5.40;1.87;;;;;;;15.51;55.18;100749.86;1704844;83;21158;-50
2022/06/15 04:58:06;;;;;;;4.72;1.80;;;;;;;15.57;54.64;100757.74;1702202;83;21138;-49
2022/06/15 05:00:40;;;;;;;4.30;1.72;;;;;;;15.63;54.51;100751.83;1702857;83;21090;-49
2022/06/15 05:03:07;;;;;;;3.65;1.72;;;;;;;15.69;54.12;100754.41;1690949;83;21070;-49
2022/06/15 05:05:34;;;;;;;7.92;1.70;;;;;;;15.77;53.78;100753.22;1695804;83;21047;-50
2022/06/15 05:08:03;;;;;;;6.20;2.10;;;;;;;15.83;53.97;100758.41;1702368;83;21107;-49
2022/06/15 05:10:31;;;;;;;4.67;2.00;;;;;;;15.91;53.82;100754.53;1708036;83;21135;-50
2022/06/15 05:12:57;;;;;;;5.42;1.77;;;;;;;16.00;54.05;100757.60;1691573;83;21568;-50
2022/06/15 05:15:25;;;;;;;6.40;1.80;;;;;;;16.08;53.83;100757.70;1708143;83;21130;-50
2022/06/15 05:17:53;;;;;;;6.37;2.02;;;;;;;16.15;53.42;100753.48;1699346;83;21102;-50
2022/06/15 05:20:23;;;;;;;4.75;2.27;;;;;;;16.22;52.84;100758.99;1703800;83;21672;-49
2022/06/15 05:22:53;;;;;;;5.35;1.70;;;;;;;16.26;52.66;100762.20;1708116;83;21082;-50
2022/06/15 05:25:23;;;;;;;5.00;1.77;;;;;;;16.32;52.47;100768.22;1707815;83;21523;-50
2022/06/15 05:27:50;;;;;;;4.00;1.80;;;;;;;16.37;52.80;100775.74;1695201;82;21417;-50
2022/06/15 05:30:17;;;;;;;4.00;1.60;;;;;;;16.43;52.23;100769.84;1700479;82;21546;-50
2022/06/15 05:32:46;;;;;;;4.17;1.50;;;;;;;16.48;51.97;100769.72;1703537;82;21577;-50
2022/06/15 05:35:15;;;;;;;6.15;1.87;;;;;;;16.51;51.73;100762.77;1709429;83;21138;-49
2022/06/15 05:37:43;;;;;;;5.70;2.20;;;;;;;16.56;51.68;100768.97;1708011;82;21062;-49
2022/06/15 05:40:12;;;;;;;5.22;2.47;;;;;;;16.61;51.84;100767.16;1707666;82;21121;-50
2022/06/15 05:42:40;;;;;;;5.33;1.80;;;;;;;16.67;51.87;100767.88;1720528;82;21118;-50
2022/06/15 05:45:08;;;;;;;7.87;1.85;;;;;;;16.76;51.77;100762.99;1711274;82;21081;-51
2022/06/15 05:47:35;;;;;;;3.52;1.45;;;;;;;16.87;51.23;100770.73;1711048;82;21083;-50
2022/06/15 05:50:11;;;;;;;5.15;1.75;;;;;;;16.94;50.48;100768.28;1710871;83;21097;-50
2022/06/15 05:52:41;;;;;;;6.22;1.75;;;;;;;16.94;50.12;100770.95;1728912;81;21042;-52
2022/06/15 05:55:09;;;;;;;5.28;1.70;;;;;;;16.95;50.55;100763.33;1741328;80;21074;-50
2022/06/15 05:57:37;;;;;;;5.85;1.57;;;;;;;17.01;50.01;100772.02;1725614;81;20986;-51
2022/06/15 06:00:09;;;;;;;5.00;2.10;;;;;;;17.08;49.17;100778.88;1750443;81;20979;-50
2022/06/15 06:02:43;;;;;;;5.12;1.57;;;;;;;17.11;49.42;100777.20;1744850;81;20951;-51
2022/06/15 06:05:10;;;;;;;4.35;1.72;;;;;;;17.16;49.50;100773.59;1709729;82;21684;-50
2022/06/15 06:07:36;;;;;;;4.00;1.80;;;;;;;17.25;49.24;100767.84;1711902;82;21861;-50
2022/06/15 06:10:04;;;;;;;5.12;1.50;;;;;;;17.32;49.35;100768.87;1711905;82;20982;-51
2022/06/15 06:12:32;;;;;;;4.17;1.42;;;;;;;17.37;48.47;100773.73;1734696;81;21106;-50
2022/06/15 06:15:00;;;;;;;5.37;1.50;;;;;;;17.40;48.18;100774.25;1748835;80;21070;-51
2022/06/15 06:17:26;;;;;;;4.20;1.47;;;;;;;17.43;48.28;100770.42;1742285;81;20992;-50
2022/06/15 06:19:53;;;;;;;5.22;1.80;;;;;;;17.48;48.32;100772.11;1713866;82;21034;-51
2022/06/15 06:22:19;;;;;;;4.20;1.47;;;;;;;17.56;48.39;100766.83;1697077;82;21355;-50
2022/06/15 06:24:47;;;;;;;5.45;1.62;;;;;;;17.66;48.45;100767.22;1709054;83;21102;-50
2022/06/15 06:27:15;;;;;;;5.53;1.30;;;;;;;17.76;47.86;100760.77;1731997;81;21129;-50
2022/06/15 06:29:43;;;;;;;3.92;1.50;;;;;;;17.81;47.01;100762.95;1740789;81;21031;-51
2022/06/15 06:32:12;;;;;;;6.22;1.40;;;;;;;17.83;46.56;100764.44;1698942;82;21417;-51
2022/06/15 06:34:39;;;;;;;4.05;1.47;;;;;;;17.88;47.14;100771.16;1700451;83;21620;-50
2022/06/15 06:37:07;;;;;;;3.55;1.40;;;;;;;17.95;46.08;100769.00;1700343;83;21141;-51
2022/06/15 06:39:34;;;;;;;4.15;1.30;;;;;;;18.01;45.87;100768.87;1705122;83;21120;-50
2022/06/15 06:42:02;;;;;;;6.05;1.55;;;;;;;18.07;46.43;100772.23;1699805;83;21122;-50
2022/06/15 06:44:31;;;;;;;3.42;1.30;;;;;;;18.16;46.11;100765.91;1700222;83;20999;-50
2022/06/15 06:46:57;;;;;;;3.67;1.30;;;;;;;18.24;45.22;100766.92;1703663;83;21119;-51
2022/06/15 06:49:24;;;;;;;4.30;1.10;;;;;;;18.26;44.83;100769.77;1699455;83;21140;-50
2022/06/15 06:51:50;;;;;;;3.30;1.12;;;;;;;18.27;44.32;100768.75;1706333;83;21044;-51
2022/06/15 06:54:20;;;;;;;4.22;1.30;;;;;;;18.30;44.48;100766.27;1705599;83;21629;-51
2022/06/15 06:56:47;;;;;;;4.70;1.60;;;;;;;18.32;44.60;100766.94;1697474;83;21051;-50
2022/06/15 06:59:14;;;;;;;4.80;1.25;;;;;;;18.40;44.93;100774.94;1702882;82;21131;-51
2022/06/15 07:01:42;;;;;;;3.33;1.35;;;;;;;18.48;44.82;100770.95;1691463;83;21127;-50
2022/06/15 07:04:11;;;;;;;5.12;1.40;;;;;;;18.55;44.47;100773.29;1687729;83;21003;-51
2022/06/15 07:06:39;;;;;;;4.12;1.50;;;;;;;18.60;43.87;100773.31;1696839;83;21141;-50
2022/06/15 07:09:05;;;;;;;4.60;1.35;;;;;;;18.63;44.43;100771.65;1695977;83;21086;-50
2022/06/15 07:11:31;;;;;;;3.47;1.37;;;;;;;18.69;44.01;100774.96;1697432;83;21099;-50
2022/06/15 07:13:59;;;;;;;3.95;1.75;;;;;;;18.76;43.44;100765.29;1699331;83;21080;-50
2022/06/15 07:16:27;;;;;;;2.70;1.10;;;;;;;18.80;43.98;100766.64;1698478;83;21629;-53
2022/06/15 07:18:55;;;;;;;5.72;1.62;;;;;;;18.87;44.22;100764.17;1701451;84;21008;-50
2022/06/15 07:21:24;;;;;;;4.50;1.45;;;;;;;18.96;44.11;100767.66;1695296;83;21065;-51
2022/06/15 07:23:55;;;;;;;4.75;1.40;;;;;;;19.01;42.85;100773.31;1694582;82;21575;-50
2022/06/15 07:26:29;;;;;;;6.55;1.32;;;;;;;19.03;43.47;100768.16;1697618;83;21138;-50
2022/06/15 07:28:57;;;;;;;5.78;1.75;;;;;;;19.10;42.59;100786.48;1698026;83;21153;-51
2022/06/15 07:31:30;;;;;;;4.50;1.70;;;;;;;19.12;41.66;100784.47;1694599;83;21133;-50
2022/06/15 07:33:57;;;;;;;4.50;1.42;;;;;;;19.12;41.87;100770.30;1702496;83;21079;-51
2022/06/15 07:36:24;;;;;;;3.40;1.20;;;;;;;19.18;42.37;100772.78;1687241;83;21102;-50
2022/06/15 07:38:52;;;;;;;4.28;1.37;;;;;;;19.25;41.23;100767.12;1705077;83;21156;-51
2022/06/15 07:41:18;;;;;;;4.87;1.55;;;;;;;19.27;41.19;100760.59;1699646;83;21122;-50
2022/06/15 07:43:45;;;;;;;4.50;1.25;;;;;;;19.33;41.42;100766.25;1690449;83;21105;-50
2022/06/15 07:46:12;;;;;;;5.17;1.60;;;;;;;19.32;40.75;100761.43;1744497;81;22176;-51
2022/06/15 07:51:28;;;;;;;4.43;1.33;;;;;;;19.33;41.83;100769.74;1710555;82;21739;-49
2022/06/15 07:53:57;;;;;;;4.97;1.92;;;;;;;19.34;42.31;100760.75;1695066;82;21335;-49
2022/06/15 07:56:23;;;;;;;4.42;1.35;;;;;;;19.40;41.40;100771.23;1712090;82;21125;-50
2022/06/15 07:58:50;;;;;;;3.83;1.27;;;;;;;19.47;40.80;100771.72;1710765;83;21058;-49
2022/06/15 08:01:16;;;;;;;5.62;1.17;;;;;;;19.56;41.02;100763.69;1709938;82;22430;-55
2022/06/15 08:03:43;;;;;;;5.30;1.25;;;;;;;19.65;40.43;100759.97;1705570;82;21117;-50
2022/06/15 08:06:10;;;;;;;3.72;1.20;;;;;;;19.77;40.46;100763.11;1708068;82;21049;-49
2022/06/15 08:08:38;;;;;;;3.17;1.37;;;;;;;19.85;39.52;100767.94;1699526;83;21888;-49
2022/06/15 08:11:05;;;;;;;3.85;1.30;;;;;;;19.90;39.85;100751.38;1697365;83;21161;-49
2022/06/15 08:13:33;;;;;;;4.85;1.20;;;;;;;19.96;39.88;100751.19;1702605;83;21525;-49
2022/06/15 08:16:00;;;;;;;4.78;1.17;;;;;;;19.99;39.59;100757.01;1705602;83;21560;-49
2022/06/15 08:18:30;;;;;;;3.37;1.17;;;;;;;20.02;38.67;100755.33;1704014;82;21058;-49
2022/06/15 08:21:02;;;;;;;4.53;0.90;;;;;;;20.05;39.11;100754.13;1699917;83;21103;-50
2022/06/15 08:23:33;;;;;;;3.40;1.10;;;;;;;20.13;37.82;100758.09;1703809;83;21095;-49
2022/06/15 08:26:08;;;;;;;3.83;1.32;;;;;;;20.12;37.97;100752.41;1699854;83;21129;-50
2022/06/15 08:28:38;;;;;;;;;;;;;;;20.06;38.20;100757.14;1706933;83;21158;-50
2022/06/15 08:31:05;;;;;;;3.17;0.90;;;;;;;20.04;38.06;100761.32;1703144;82;20495;-49
2022/06/15 08:33:32;;;;;;;2.50;0.80;;;;;;;20.02;37.87;100771.36;1703409;83;21111;-50
2022/06/15 08:35:58;;;;;;;2.25;0.85;;;;;;;20.05;38.10;100751.45;1704292;83;21111;-50
2022/06/15 08:38:26;;;;;;;4.58;1.10;;;;;;;20.12;38.74;100751.07;1685661;83;21039;-50
2022/06/15 08:41:00;;;;;;;3.67;1.30;;;;;;;20.28;39.05;100742.65;1699670;83;21196;-49
2022/06/15 08:43:35;;;;;;;6.90;1.55;;;;;;;20.41;38.03;100758.92;1699044;83;21115;-49
2022/06/15 08:46:20;;;;;;;2.92;1.07;;;;;;;20.44;38.47;100757.72;1706085;83;21146;-50
2022/06/15 08:49:10;;;;;;;2.35;0.90;;;;;;;20.47;37.84;100754.18;1688367;83;21150;-50
2022/06/15 08:51:42;;;;;;;3.47;0.90;;;;;;;20.55;36.99;100755.45;1684224;83;21723;-49
2022/06/15 08:54:18;;;;;;;3.47;1.10;;;;;;;20.62;36.55;100751.56;1734932;81;21117;-49
2022/06/15 08:57:06;;;;;;;3.42;1.07;;;;;;;20.70;35.95;100741.34;1727506;81;21031;-49
2022/06/15 08:59:50;;;;;;;4.55;1.10;;;;;;;20.80;35.89;100747.27;1730703;81;21046;-49
2022/06/15 09:02:31;;;;;;;4.75;1.22;;;;;;;20.90;36.54;100750.52;1735743;81;21090;-49
2022/06/15 09:05:48;;;;;;;3.17;0.90;;;;;;;20.97;34.86;100751.95;1730215;81;21343;-48
2022/06/15 09:08:46;;;;;;;5.78;0.90;;;;;;;20.96;35.91;100737.76;1738941;81;21476;-49
2022/06/15 09:11:38;;;;;;;2.83;1.00;;;;;;;20.94;36.03;100755.81;1694273;83;20987;-49
2022/06/15 09:14:36;;;;;;;3.67;0.93;;;;;;;20.87;35.94;100758.08;1703665;82;21094;-48
2022/06/15 09:17:18;;;;;;;2.00;0.80;;;;;;;20.89;36.29;100746.16;1748668;81;21043;-49
2022/06/15 09:20:09;;;;;;;4.62;1.30;;;;;;;21.02;36.43;100752.76;1740574;81;21519;-49
2022/06/15 09:22:44;;;;;;;3.05;0.93;;;;;;;21.15;35.96;100747.61;1694540;82;21117;-49
2022/06/15 09:25:28;;;;;;;3.33;1.02;;;;;;;21.26;35.30;100745.79;1713509;83;21042;-49
2022/06/15 09:28:03;;;;;;;3.27;1.00;;;;;;;21.26;35.15;100736.42;1700881;82;22371;-48
2022/06/15 09:30:33;;;;;;;3.65;1.20;;;;;;;21.23;35.25;100739.49;1703878;82;21565;-49
2022/06/15 09:33:09;;;;;;;3.70;0.90;;;;;;;21.24;35.44;100747.00;1731047;80;21086;-49
2022/06/15 09:35:42;;;;;;;2.70;1.00;;;;;;;21.33;35.44;100745.39;1697037;83;21809;-49
2022/06/15 09:38:12;;;;;;;2.12;0.90;;;;;;;21.45;34.86;100739.07;1695903;82;21549;-49
2022/06/15 09:41:15;;;;;;;2.77;0.88;;;;;;;21.59;33.73;100741.95;1716804;81;21106;-48
2022/06/15 09:44:14;;;;;;;3.08;0.90;;;;;;;21.69;33.90;100745.16;1720174;81;21054;-49
2022/06/15 09:46:58;;;;;;;3.85;1.02;;;;;;;21.74;34.27;100741.41;1728794;81;21016;-48
2022/06/15 09:49:54;;;;;;;3.08;0.80;;;;;;;21.83;34.33;100724.72;1738748;80;21132;-50
2022/06/15 09:52:54;;;;;;;4.12;1.22;;;;;;;21.82;34.17;100739.12;1698686;82;21015;-49
2022/06/15 09:55:33;;;;;;;2.15;0.78;;;;;;;21.76;33.64;100734.53;1687789;84;21601;-49
2022/06/15 09:58:01;;;;;;;2.05;0.70;;;;;;;21.77;33.59;100734.84;1702884;83;21107;-49
2022/06/15 10:00:27;;;;;;;6.28;1.12;;;;;;;21.85;34.99;100736.89;1707801;83;21143;-48
2022/06/15 10:02:59;;;;;;;3.50;1.30;;;;;;;21.94;34.90;100738.97;1703730;83;21107;-49
2022/06/15 10:05:34;;;;;;;2.58;0.93;;;;;;;21.95;34.83;100739.27;1707912;83;21068;-49
2022/06/15 10:08:08;;;;;;;3.05;0.70;;;;;;;21.95;34.08;100733.91;1703647;83;21066;-49
2022/06/15 10:10:46;;;;;;;2.02;0.53;;;;;;;21.99;34.15;100728.52;1686769;83;21086;-48
2022/06/15 10:13:26;;;;;;;3.17;0.90;;;;;;;22.08;34.10;100731.38;1688798;83;21134;-49
2022/06/15 10:16:01;;;;;;;5.67;1.00;;;;;;;22.22;32.60;100720.28;1685689;83;21147;-49
2022/06/15 10:18:48;;;;;;;3.22;0.93;;;;;;;22.39;32.36;100717.38;1695041;83;21102;-48
2022/06/15 10:21:20;;;;;;;3.90;0.80;;;;;;;22.52;33.48;100712.13;1705361;83;21040;-49
2022/06/15 10:24:12;;;;;;;3.80;0.78;;;;;;;22.69;32.60;100711.34;1701268;83;21066;-49
2022/06/15 10:26:46;;;;;;;2.62;1.07;;;;;;;22.71;33.46;100720.53;1698997;83;21074;-49
2022/06/15 10:29:22;;;;;;;2.87;0.88;;;;;;;22.58;33.32;100718.07;1699598;83;21295;-49
2022/06/15 10:32:03;;;;;;;3.20;0.82;;;;;;;22.38;33.25;100726.45;1692163;82;21073;-50
2022/06/15 10:34:33;;;;;;;3.75;1.05;;;;;;;22.23;32.96;100719.79;1689519;83;21087;-48
2022/06/15 10:37:07;;;;;;;2.83;0.93;;;;;;;22.22;32.80;100717.59;1696207;83;21098;-49
2022/06/15 10:39:37;;;;;;;3.05;0.88;;;;;;;22.28;32.69;100711.18;1705655;83;21558;-49
2022/06/15 10:42:42;;;;;;;1.82;0.60;;;;;;;22.39;33.10;100715.55;1697904;83;21097;-49
2022/06/15 10:45:32;;;;;;;3.33;0.85;;;;;;;22.45;32.68;100709.91;1702161;83;21130;-49
2022/06/15 10:48:13;;;;;;;4.42;1.07;;;;;;;22.42;33.17;100715.66;1695903;82;21043;-49
2022/06/15 10:51:05;;;;;;;4.95;0.85;;;;;;;22.26;32.23;100704.67;1705911;83;21058;-49
2022/06/15 10:53:49;;;;;;;2.58;0.90;;;;;;;22.20;31.73;100709.45;1683535;83;21121;-50
2022/06/15 11:02:39;;;;;;;1.77;0.70;;;;;;;22.49;32.10;100700.97;1696222;83;21059;-50
2022/06/15 11:05:14;;;;;;;2.22;0.85;;;;;;;22.64;32.00;100697.68;1696956;83;21683;-50
2022/06/15 11:07:49;;;;;;;3.45;0.88;;;;;;;22.84;29.68;100690.30;1688290;82;21118;-49
2022/06/15 11:10:35;;;;;;;2.52;1.07;;;;;;;23.01;29.39;100691.64;1691036;83;21154;-50
2022/06/15 11:13:08;;;;;;;2.17;0.60;;;;;;;23.12;29.44;100677.70;1692941;83;21118;-50
2022/06/15 11:18:38;;;;;;;3.60;0.57;;;;;;;23.32;29.05;100690.41;1693176;83;21352;-49
2022/06/15 11:21:23;;;;;;;3.52;0.82;;;;;;;23.25;30.20;100694.89;1703404;83;21087;-51
2022/06/15 11:24:13;;;;;;;3.75;0.80;;;;;;;23.16;30.30;100680.30;1696018;83;21326;-49
2022/06/15 11:27:05;;;;;;;2.20;0.68;;;;;;;23.07;31.39;100692.23;1704009;83;21133;-50
2022/06/15 11:29:53;;;;;;;2.42;0.60;;;;;;;23.11;31.30;100692.66;1693899;82;21122;-49
2022/06/15 11:32:59;;;;;;;1.57;0.50;;;;;;;23.26;30.77;100683.14;1697529;83;21899;-49
2022/06/15 11:35:53;;;;;;;3.00;1.17;;;;;;;23.38;28.65;100681.53;1699244;82;21087;-49
2022/06/15 11:38:49;;;;;;;2.85;0.88;;;;;;;23.42;29.44;100689.52;1702608;83;21157;-51
2022/06/15 11:41:27;;;;;;;3.17;1.25;;;;;;;23.42;29.43;100692.20;1695023;83;21031;-50
2022/06/15 11:43:56;;;;;;;2.67;0.78;;;;;;;23.36;30.04;100693.81;1702745;83;21485;-50
2022/06/15 11:46:35;;;;;;;1.35;0.55;;;;;;;23.38;30.05;100692.27;1715404;82;21048;-50
2022/06/15 11:49:43;;;;;;;1.72;0.60;;;;;;;23.41;29.88;100690.54;1688683;83;21115;-50
2022/06/15 11:52:54;;;;;;;2.92;0.80;;;;;;;23.46;29.71;100688.08;1705090;83;21152;-48
2022/06/15 11:55:42;;;;;;;2.62;0.70;;;;;;;23.51;28.65;100681.59;1695057;83;21058;-49
2022/06/15 11:58:21;;;;;;;1.35;0.42;;;;;;;23.58;29.69;100674.90;1704197;83;21067;-49
2022/06/15 12:01:06;;;;;;;2.65;0.42;;;;;;;23.66;29.78;100681.96;1685762;83;21071;-48
2022/06/15 12:04:26;;;;;;;2.83;0.72;;;;;;;23.66;30.01;100667.19;1704337;83;21130;-48
2022/06/15 12:07:07;;;;;;;3.80;0.70;;;;;;;23.59;30.01;100677.91;1702362;83;22175;-48
2022/06/15 12:10:33;;;;;;;1.92;0.50;;;;;;;23.56;29.76;100682.34;1693683;83;21083;-48